Ship Status Report: callsign SPS2643

sailwx.info

Track history (hours):
 
Tides and Currents Weather Stations Pressure Air Temp Water Temp Dewpoint Dewpoint Depression Visibility Wind Speed Wind Dir Waves Ship Positions

Callsign SPS2643 (name unknown)

Last reported at 2014-May-13 08:33 UTC. Time now 2014-Oct-24 21:23 UTC.
Position N 53°27' E 014°36'.
Warning: this ship's position is months out of date.

Date/timePositionNaut miles runAvg speedWind from/ knotsBaromVisibWave heightAir tempDewpointWater temp
2014-May-13 08:33N 53°27' E 014°36'0 0.0
2014-May-13 07:33N 53°27' E 014°36'0 0.0
2014-May-13 06:33N 53°27' E 014°36'0 0.0
2014-May-13 05:33N 53°27' E 014°36'0 0.0
2014-May-13 04:33N 53°27' E 014°36'0 0.0
2014-May-13 03:33N 53°27' E 014°36'0 0.0
2014-May-13 02:33N 53°27' E 014°36'0 0.0
2014-May-13 01:33N 53°27' E 014°36'0 0.0
2014-May-13 00:33N 53°27' E 014°36'0 0.0
2014-May-12 23:33N 53°27' E 014°36'0 0.0
2014-May-12 22:33N 53°27' E 014°36'0 0.0
2014-May-12 21:33N 53°27' E 014°36'0 0.0
2014-May-12 19:30N 53°27' E 014°36'0 0.0
2014-May-12 18:33N 53°27' E 014°36'0 0.0
2014-May-12 18:00N 53°27' E 014°36'0 0.0
2014-May-12 17:33N 53°27' E 014°36'0 0.0
2014-May-12 16:33N 53°27' E 014°36'0 0.0
2014-May-12 15:33N 53°27' E 014°36'0 0.0
2014-May-12 14:33N 53°27' E 014°36'0 0.0
2014-May-12 13:33N 53°27' E 014°36'0 0.0
2014-May-12 12:30N 53°27' E 014°36'0 0.1
2014-May-12 11:33N 53°27' E 014°36'0 0.2
2014-May-12 10:33N 53°27' E 014°36'0 0.0
2014-May-12 09:33N 53°27' E 014°36'0 0.0
2014-May-12 08:33N 53°27' E 014°36'0 0.0
2014-May-12 07:33N 53°27' E 014°36'0 0.0
2014-May-12 05:33N 53°27' E 014°36'0 0.2
2014-May-12 04:33N 53°27' E 014°36'7 6.2
2014-May-12 03:23N 53°35' E 014°36'910.7
2014-May-12 02:33N 53°42' E 014°28'213.0
2014-May-12 02:26N 53°44' E 014°27'910.7
2014-May-12 01:33N 53°51' E 014°17'3 3.1
2014-May-12 00:33N 53°54' E 014°15'0 0.0
2014-May-11 23:33N 53°54' E 014°15'0 0.0
2014-May-11 22:33N 53°54' E 014°15'0 0.0
2014-May-11 21:33N 53°54' E 014°15'0 0.0
2014-May-11 20:33N 53°54' E 014°15'0 0.0
2014-May-11 19:33N 53°54' E 014°15'0 0.0
2014-May-11 18:33N 53°54' E 014°15'0 0.0
2014-May-11 17:33N 53°54' E 014°15'0 0.0
2014-May-11 16:33N 53°54' E 014°15'1 1.5
2014-May-11 15:34N 53°55' E 014°17'1211.9
2014-May-11 14:33N 54°07' E 014°12'1212.1
2014-May-11 13:33N 54°19' E 014°08'1212.0
2014-May-11 12:33N 54°30' E 014°03'1212.0
2014-May-11 11:33N 54°42' E 014°01'1211.8
2014-May-11 10:33N 54°54' E 013°58'1211.8
2014-May-11 09:32N 55°06' E 013°54'1313.0
2014-May-11 08:33N 55°18' E 013°49'7 1.7
2014-May-11 04:18N 55°26' E 013°50'0 0.0
2014-May-11 03:30N 55°26' E 013°50'0 0.0
2014-May-11 03:01N 55°26' E 013°50'2 5.1
2014-May-11 02:33N 55°23' E 013°48'10 9.8
2014-May-11 01:33N 55°14' E 013°50'1010.2
2014-May-11 00:33N 55°04' E 013°56'1110.7
2014-May-10 23:33N 54°53' E 013°58'1110.7
2014-May-10 22:33N 54°43' E 014°02'1110.5
2014-May-10 21:31N 54°32' E 014°05'1010.3
2014-May-10 20:33N 54°23' E 014°10'1010.3
2014-May-10 19:33N 54°13' E 014°12'1010.2
2014-May-10 18:33N 54°02' E 014°15'9 7.8
2014-May-10 17:28N 53°54' E 014°15'0 0.0
2014-May-10 16:31N 53°54' E 014°15'0 0.0
2014-May-10 15:31N 53°54' E 014°15'2 1.7
2014-May-10 14:33N 53°55' E 014°17'1110.7
2014-May-10 13:33N 54°06' E 014°13'1211.8
2014-May-10 12:33N 54°17' E 014°08'1212.3
2014-May-10 11:33N 54°29' E 014°05'1514.6
2014-May-10 10:33N 54°44' E 014°01'1514.4
2014-May-10 09:33N 54°58' E 013°56'1514.6
2014-May-10 08:33N 55°12' E 013°51'13 3.0
2014-May-10 04:09N 55°26' E 013°50'0 0.0
2014-May-10 03:27N 55°26' E 013°50'2 2.6
2014-May-10 02:33N 55°23' E 013°48'10 9.6
2014-May-10 01:33N 55°14' E 013°51'1010.1
2014-May-10 00:33N 55°04' E 013°55'1010.4
2014-May-09 23:33N 54°54' E 013°58'1010.4
2014-May-09 22:33N 54°44' E 014°01'910.5
2014-May-09 21:42N 54°35' E 014°04'1210.4
2014-May-09 20:33N 54°23' E 014°10'1010.5
2014-May-09 19:33N 54°13' E 014°12'19 9.5
2014-May-09 17:33N 53°54' E 014°15'0 0.1
2014-May-09 16:33N 53°54' E 014°15'0 0.0
2014-May-09 15:33N 53°54' E 014°15'3 2.6
2014-May-09 14:33N 53°57' E 014°16'1010.2
2014-May-09 13:33N 54°07' E 014°13'1211.6
2014-May-09 12:33N 54°18' E 014°08'1111.5
2014-May-09 11:33N 54°29' E 014°04'1413.8
2014-May-09 10:33N 54°43' E 014°02'1514.4
2014-May-09 09:33N 54°57' E 013°56'1414.4
2014-May-09 08:33N 55°11' E 013°51'1414.0
2014-May-09 07:33N 55°25' E 013°49'1 0.2
2014-May-09 04:11N 55°26' E 013°50'0 0.0
2014-May-09 03:17N 55°26' E 013°50'2 3.3
2014-May-09 02:32N 55°23' E 013°48'1010.0
2014-May-09 01:32N 55°13' E 013°51'1010.3
2014-May-09 00:33N 55°03' E 013°55'1110.5
2014-May-08 23:33N 54°53' E 013°58'1110.5
2014-May-08 22:33N 54°43' E 014°02'1010.3
2014-May-08 21:33N 54°33' E 014°05'1010.3
2014-May-08 20:33N 54°23' E 014°10'1010.2
2014-May-08 19:33N 54°13' E 014°12'1010.1
2014-May-08 18:33N 54°03' E 014°15'9 8.4
2014-May-08 17:31N 53°54' E 014°15'0 0.1
2014-May-08 16:31N 53°54' E 014°15'0 0.0
2014-May-08 15:31N 53°54' E 014°15'1 1.1
2014-May-08 14:34N 53°55' E 014°17'1110.5
2014-May-08 13:33N 54°05' E 014°13'1211.7
2014-May-08 12:33N 54°17' E 014°09'1312.9
2014-May-08 11:33N 54°29' E 014°04'1414.4
2014-May-08 10:33N 54°43' E 014°01'1414.5
2014-May-08 09:33N 54°58' E 013°57'1414.4
2014-May-08 08:33N 55°12' E 013°51'1413.6
2014-May-08 07:33N 55°25' E 013°49'0 0.2
2014-May-08 05:23N 55°26' E 013°50'0 0.0
2014-May-08 04:17N 55°26' E 013°50'0 0.0
2014-May-08 03:23N 55°26' E 013°50'2 2.9
2014-May-08 02:33N 55°23' E 013°48'1211.7
2014-May-08 01:33N 55°12' E 013°50'1010.4
2014-May-08 00:34N 55°02' E 013°54'1010.2
2014-May-07 23:33N 54°52' E 013°59'1010.4
2014-May-07 22:33N 54°42' E 014°02'1010.3
2014-May-07 21:33N 54°31' E 014°06'1010.0
2014-May-07 20:34N 54°22' E 014°10'1010.1
2014-May-07 19:32N 54°12' E 014°13'1010.0
2014-May-07 18:34N 54°02' E 014°15'8 8.0
2014-May-07 17:33N 53°54' E 014°15'0 0.1
2014-May-07 16:33N 53°54' E 014°15'0 0.0
2014-May-07 15:33N 53°54' E 014°15'1 1.1
2014-May-07 14:34N 53°55' E 014°17'1010.4
2014-May-07 13:33N 54°05' E 014°13'1212.1
2014-May-07 12:33N 54°17' E 014°09'1313.2
2014-May-07 11:34N 54°30' E 014°05'1514.5
2014-May-07 10:34N 54°44' E 014°01'1414.4
2014-May-07 09:33N 54°58' E 013°56'1414.2
2014-May-07 08:33N 55°12' E 013°51'1313.3
2014-May-07 07:33N 55°25' E 013°49'0 0.1
2014-May-07 04:33N 55°26' E 013°50'0 0.0
2014-May-07 03:33N 55°26' E 013°50'2 2.2
2014-May-07 02:33N 55°24' E 013°48'10 9.5
2014-May-07 01:33N 55°14' E 013°51'10 9.7
2014-May-07 00:33N 55°05' E 013°54'1010.2
2014-May-06 23:33N 54°55' E 013°58'1010.4
2014-May-06 22:33N 54°44' E 014°01'1110.8
2014-May-06 21:33N 54°34' E 014°05'1110.7
2014-May-06 20:33N 54°24' E 014°10'1110.6
2014-May-06 19:33N 54°13' E 014°12'1110.5
2014-May-06 18:33N 54°03' E 014°15'9 8.5
2014-May-06 17:32N 53°54' E 014°15'0 0.1
2014-May-06 16:32N 53°54' E 014°15'0 0.0
2014-May-06 15:32N 53°54' E 014°15'1 0.6
2014-May-06 14:33N 53°54' E 014°16'10 9.9
2014-May-06 13:34N 54°04' E 014°13'1212.2
2014-May-06 12:34N 54°16' E 014°10'1414.0
2014-May-06 11:34N 54°30' E 014°05'1414.0
2014-May-06 10:34N 54°44' E 014°01'1414.3
2014-May-06 09:34N 54°58' E 013°57'1414.1
2014-May-06 08:33N 55°12' E 013°52'1413.4
2014-May-06 07:33N 55°25' E 013°49'0 0.1
2014-May-06 04:16N 55°26' E 013°50'0 0.0
2014-May-06 03:28N 55°26' E 013°50'1 1.2
2014-May-06 02:33N 55°25' E 013°49'1010.3
2014-May-06 01:33N 55°14' E 013°51'10 9.8
2014-May-06 00:33N 55°05' E 013°55'1010.3
2014-May-05 23:33N 54°55' E 013°58'1010.4
2014-May-05 22:33N 54°44' E 014°02'1110.5
2014-May-05 21:30N 54°34' E 014°05'1010.6
2014-May-05 20:33N 54°24' E 014°08'1110.8
2014-May-05 19:33N 54°13' E 014°12'1110.6
2014-May-05 18:33N 54°03' E 014°15'9 8.8
2014-May-05 17:34N 53°54' E 014°15'0 0.1
2014-May-05 16:32N 53°54' E 014°15'0 0.0
2014-May-05 15:32N 53°54' E 014°15'2 1.9
2014-May-05 14:34N 53°56' E 014°17'1211.6
2014-May-05 13:33N 54°07' E 014°13'1212.3
2014-May-05 12:33N 54°19' E 014°09'1212.3
2014-May-05 11:33N 54°31' E 014°05'1212.5
2014-May-05 10:33N 54°43' E 014°01'1212.4
2014-May-05 09:33N 54°56' E 013°57'1515.2
2014-May-05 08:33N 55°11' E 013°54'1414.5
2014-May-05 07:34N 55°25' E 013°49'1 0.3
2014-May-05 05:27N 55°26' E 013°50'0 0.0
2014-May-05 04:27N 55°26' E 013°50'0 0.0
2014-May-05 03:33N 55°26' E 013°50'1 1.0
2014-May-05 02:33N 55°25' E 013°49'1414.1
2014-May-05 01:33N 55°11' E 013°52'1010.2
2014-May-05 00:34N 55°01' E 013°55'1010.3
2014-May-04 23:33N 54°50' E 013°58'1010.3
2014-May-04 22:34N 54°41' E 014°02'11 9.9
2014-May-04 21:30N 54°30' E 014°06'9 9.8
2014-May-04 20:33N 54°21' E 014°09'10 9.7
2014-May-04 19:33N 54°12' E 014°12'10 9.6
2014-May-04 18:33N 54°02' E 014°15'8 8.2
2014-May-04 17:33N 53°54' E 014°15'0 0.1
2014-May-04 16:33N 53°54' E 014°15'0 0.0
2014-May-04 15:33N 53°54' E 014°15'1 1.4
2014-May-04 14:34N 53°55' E 014°17'1211.6
2014-May-04 13:34N 54°06' E 014°13'1312.2
2014-May-04 12:32N 54°19' E 014°09'1212.4
2014-May-04 11:34N 54°31' E 014°05'1312.5
2014-May-04 10:33N 54°43' E 014°01'1313.0
2014-May-04 09:32N 54°56' E 013°56'1515.2
2014-May-04 08:34N 55°10' E 013°52'1514.6
2014-May-04 07:34N 55°25' E 013°49'1 0.2
2014-May-04 04:15N 55°26' E 013°50'0 0.0
2014-May-04 03:33N 55°26' E 013°50'1 1.0
2014-May-04 02:34N 55°25' E 013°49'1413.8
2014-May-04 01:32N 55°11' E 013°52'1010.6
2014-May-04 00:33N 55°00' E 013°56'10 9.6
2014-May-03 23:33N 54°51' E 013°58'9 9.4
2014-May-03 22:33N 54°42' E 014°03'10 9.7
2014-May-03 21:33N 54°32' E 014°06'10 9.8
2014-May-03 20:33N 54°23' E 014°09'10 9.9
2014-May-03 19:30N 54°13' E 014°12'910.0
2014-May-03 18:33N 54°03' E 014°15'9 9.0
2014-May-03 17:33N 53°54' E 014°15'0 0.2
2014-May-03 16:31N 53°54' E 014°15'0 0.0
2014-May-03 15:31N 53°54' E 014°15'5 4.9
2014-May-03 14:33N 53°59' E 014°15'1110.7
2014-May-03 13:33N 54°09' E 014°12'1211.9
2014-May-03 12:33N 54°21' E 014°08'1212.0
2014-May-03 11:33N 54°33' E 014°05'1212.3
2014-May-03 10:33N 54°45' E 014°01'1312.6
2014-May-03 09:33N 54°56' E 013°51'1514.7
2014-May-03 08:33N 55°11' E 013°52'  
Track history (hours):
 
Tides and Currents Weather Stations Pressure Air Temp Water Temp Dewpoint Dewpoint Depression Visibility Wind Speed Wind Dir Waves Ship Positions

Callsign SPS2643 (name unknown)

Last reported at 2014-May-13 08:33 UTC. Time now 2014-Oct-24 21:23 UTC.
Position N 53°27' E 014°36'.
Warning: this ship's position is months out of date.

Date/timePositionNaut miles runAvg speedWind from/ knotsBaromVisibWave heightAir tempDewpointWater temp
2014-May-13 08:33N 53°27' E 014°36'0 0.0
2014-May-13 07:33N 53°27' E 014°36'0 0.0
2014-May-13 06:33N 53°27' E 014°36'0 0.0
2014-May-13 05:33N 53°27' E 014°36'0 0.0
2014-May-13 04:33N 53°27' E 014°36'0 0.0
2014-May-13 03:33N 53°27' E 014°36'0 0.0
2014-May-13 02:33N 53°27' E 014°36'0 0.0
2014-May-13 01:33N 53°27' E 014°36'0 0.0
2014-May-13 00:33N 53°27' E 014°36'0 0.0
2014-May-12 23:33N 53°27' E 014°36'0 0.0
2014-May-12 22:33N 53°27' E 014°36'0 0.0
2014-May-12 21:33N 53°27' E 014°36'0 0.0
2014-May-12 19:30N 53°27' E 014°36'0 0.0
2014-May-12 18:33N 53°27' E 014°36'0 0.0
2014-May-12 18:00N 53°27' E 014°36'0 0.0
2014-May-12 17:33N 53°27' E 014°36'0 0.0
2014-May-12 16:33N 53°27' E 014°36'0 0.0
2014-May-12 15:33N 53°27' E 014°36'0 0.0
2014-May-12 14:33N 53°27' E 014°36'0 0.0
2014-May-12 13:33N 53°27' E 014°36'0 0.0
2014-May-12 12:30N 53°27' E 014°36'0 0.1
2014-May-12 11:33N 53°27' E 014°36'0 0.2
2014-May-12 10:33N 53°27' E 014°36'0 0.0
2014-May-12 09:33N 53°27' E 014°36'0 0.0
2014-May-12 08:33N 53°27' E 014°36'0 0.0
2014-May-12 07:33N 53°27' E 014°36'0 0.0
2014-May-12 05:33N 53°27' E 014°36'0 0.2
2014-May-12 04:33N 53°27' E 014°36'7 6.2
2014-May-12 03:23N 53°35' E 014°36'910.7
2014-May-12 02:33N 53°42' E 014°28'213.0
2014-May-12 02:26N 53°44' E 014°27'910.7
2014-May-12 01:33N 53°51' E 014°17'3 3.1
2014-May-12 00:33N 53°54' E 014°15'0 0.0
2014-May-11 23:33N 53°54' E 014°15'0 0.0
2014-May-11 22:33N 53°54' E 014°15'0 0.0
2014-May-11 21:33N 53°54' E 014°15'0 0.0
2014-May-11 20:33N 53°54' E 014°15'0 0.0
2014-May-11 19:33N 53°54' E 014°15'0 0.0
2014-May-11 18:33N 53°54' E 014°15'0 0.0
2014-May-11 17:33N 53°54' E 014°15'0 0.0
2014-May-11 16:33N 53°54' E 014°15'1 1.5
2014-May-11 15:34N 53°55' E 014°17'1211.9
2014-May-11 14:33N 54°07' E 014°12'1212.1
2014-May-11 13:33N 54°19' E 014°08'1212.0
2014-May-11 12:33N 54°30' E 014°03'1212.0
2014-May-11 11:33N 54°42' E 014°01'1211.8
2014-May-11 10:33N 54°54' E 013°58'1211.8
2014-May-11 09:32N 55°06' E 013°54'1313.0
2014-May-11 08:33N 55°18' E 013°49'7 1.7
2014-May-11 04:18N 55°26' E 013°50'0 0.0
2014-May-11 03:30N 55°26' E 013°50'0 0.0
2014-May-11 03:01N 55°26' E 013°50'2 5.1
2014-May-11 02:33N 55°23' E 013°48'10 9.8
2014-May-11 01:33N 55°14' E 013°50'1010.2
2014-May-11 00:33N 55°04' E 013°56'1110.7
2014-May-10 23:33N 54°53' E 013°58'1110.7
2014-May-10 22:33N 54°43' E 014°02'1110.5
2014-May-10 21:31N 54°32' E 014°05'1010.3
2014-May-10 20:33N 54°23' E 014°10'1010.3
2014-May-10 19:33N 54°13' E 014°12'1010.2
2014-May-10 18:33N 54°02' E 014°15'9 7.8
2014-May-10 17:28N 53°54' E 014°15'0 0.0
2014-May-10 16:31N 53°54' E 014°15'0 0.0
2014-May-10 15:31N 53°54' E 014°15'2 1.7
2014-May-10 14:33N 53°55' E 014°17'1110.7
2014-May-10 13:33N 54°06' E 014°13'1211.8
2014-May-10 12:33N 54°17' E 014°08'1212.3
2014-May-10 11:33N 54°29' E 014°05'1514.6
2014-May-10 10:33N 54°44' E 014°01'1514.4
2014-May-10 09:33N 54°58' E 013°56'1514.6
2014-May-10 08:33N 55°12' E 013°51'13 3.0
2014-May-10 04:09N 55°26' E 013°50'0 0.0
2014-May-10 03:27N 55°26' E 013°50'2 2.6
2014-May-10 02:33N 55°23' E 013°48'10 9.6
2014-May-10 01:33N 55°14' E 013°51'1010.1
2014-May-10 00:33N 55°04' E 013°55'1010.4
2014-May-09 23:33N 54°54' E 013°58'1010.4
2014-May-09 22:33N 54°44' E 014°01'910.5
2014-May-09 21:42N 54°35' E 014°04'1210.4
2014-May-09 20:33N 54°23' E 014°10'1010.5
2014-May-09 19:33N 54°13' E 014°12'19 9.5
2014-May-09 17:33N 53°54' E 014°15'0 0.1
2014-May-09 16:33N 53°54' E 014°15'0 0.0
2014-May-09 15:33N 53°54' E 014°15'3 2.6
2014-May-09 14:33N 53°57' E 014°16'1010.2
2014-May-09 13:33N 54°07' E 014°13'1211.6
2014-May-09 12:33N 54°18' E 014°08'1111.5
2014-May-09 11:33N 54°29' E 014°04'1413.8
2014-May-09 10:33N 54°43' E 014°02'1514.4
2014-May-09 09:33N 54°57' E 013°56'1414.4
2014-May-09 08:33N 55°11' E 013°51'1414.0
2014-May-09 07:33N 55°25' E 013°49'1 0.2
2014-May-09 04:11N 55°26' E 013°50'0 0.0
2014-May-09 03:17N 55°26' E 013°50'2 3.3
2014-May-09 02:32N 55°23' E 013°48'1010.0
2014-May-09 01:32N 55°13' E 013°51'1010.3
2014-May-09 00:33N 55°03' E 013°55'1110.5
2014-May-08 23:33N 54°53' E 013°58'1110.5
2014-May-08 22:33N 54°43' E 014°02'1010.3
2014-May-08 21:33N 54°33' E 014°05'1010.3
2014-May-08 20:33N 54°23' E 014°10'1010.2
2014-May-08 19:33N 54°13' E 014°12'1010.1
2014-May-08 18:33N 54°03' E 014°15'9 8.4
2014-May-08 17:31N 53°54' E 014°15'0 0.1
2014-May-08 16:31N 53°54' E 014°15'0 0.0
2014-May-08 15:31N 53°54' E 014°15'1 1.1
2014-May-08 14:34N 53°55' E 014°17'1110.5
2014-May-08 13:33N 54°05' E 014°13'1211.7
2014-May-08 12:33N 54°17' E 014°09'1312.9
2014-May-08 11:33N 54°29' E 014°04'1414.4
2014-May-08 10:33N 54°43' E 014°01'1414.5
2014-May-08 09:33N 54°58' E 013°57'1414.4
2014-May-08 08:33N 55°12' E 013°51'1413.6
2014-May-08 07:33N 55°25' E 013°49'0 0.2
2014-May-08 05:23N 55°26' E 013°50'0 0.0
2014-May-08 04:17N 55°26' E 013°50'0 0.0
2014-May-08 03:23N 55°26' E 013°50'2 2.9
2014-May-08 02:33N 55°23' E 013°48'1211.7
2014-May-08 01:33N 55°12' E 013°50'1010.4
2014-May-08 00:34N 55°02' E 013°54'1010.2
2014-May-07 23:33N 54°52' E 013°59'1010.4
2014-May-07 22:33N 54°42' E 014°02'1010.3
2014-May-07 21:33N 54°31' E 014°06'1010.0
2014-May-07 20:34N 54°22' E 014°10'1010.1
2014-May-07 19:32N 54°12' E 014°13'1010.0
2014-May-07 18:34N 54°02' E 014°15'8 8.0
2014-May-07 17:33N 53°54' E 014°15'0 0.1
2014-May-07 16:33N 53°54' E 014°15'0 0.0
2014-May-07 15:33N 53°54' E 014°15'1 1.1
2014-May-07 14:34N 53°55' E 014°17'1010.4
2014-May-07 13:33N 54°05' E 014°13'1212.1
2014-May-07 12:33N 54°17' E 014°09'1313.2
2014-May-07 11:34N 54°30' E 014°05'1514.5
2014-May-07 10:34N 54°44' E 014°01'1414.4
2014-May-07 09:33N 54°58' E 013°56'1414.2
2014-May-07 08:33N 55°12' E 013°51'1313.3
2014-May-07 07:33N 55°25' E 013°49'0 0.1
2014-May-07 04:33N 55°26' E 013°50'0 0.0
2014-May-07 03:33N 55°26' E 013°50'2 2.2
2014-May-07 02:33N 55°24' E 013°48'10 9.5
2014-May-07 01:33N 55°14' E 013°51'10 9.7
2014-May-07 00:33N 55°05' E 013°54'1010.2
2014-May-06 23:33N 54°55' E 013°58'1010.4
2014-May-06 22:33N 54°44' E 014°01'1110.8
2014-May-06 21:33N 54°34' E 014°05'1110.7
2014-May-06 20:33N 54°24' E 014°10'1110.6
2014-May-06 19:33N 54°13' E 014°12'1110.5
2014-May-06 18:33N 54°03' E 014°15'9 8.5
2014-May-06 17:32N 53°54' E 014°15'0 0.1
2014-May-06 16:32N 53°54' E 014°15'0 0.0
2014-May-06 15:32N 53°54' E 014°15'1 0.6
2014-May-06 14:33N 53°54' E 014°16'10 9.9
2014-May-06 13:34N 54°04' E 014°13'1212.2
2014-May-06 12:34N 54°16' E 014°10'1414.0
2014-May-06 11:34N 54°30' E 014°05'1414.0
2014-May-06 10:34N 54°44' E 014°01'1414.3
2014-May-06 09:34N 54°58' E 013°57'1414.1
2014-May-06 08:33N 55°12' E 013°52'1413.4
2014-May-06 07:33N 55°25' E 013°49'0 0.1
2014-May-06 04:16N 55°26' E 013°50'0 0.0
2014-May-06 03:28N 55°26' E 013°50'1 1.2
2014-May-06 02:33N 55°25' E 013°49'1010.3
2014-May-06 01:33N 55°14' E 013°51'10 9.8
2014-May-06 00:33N 55°05' E 013°55'1010.3
2014-May-05 23:33N 54°55' E 013°58'1010.4
2014-May-05 22:33N 54°44' E 014°02'1110.5
2014-May-05 21:30N 54°34' E 014°05'1010.6
2014-May-05 20:33N 54°24' E 014°08'1110.8
2014-May-05 19:33N 54°13' E 014°12'1110.6
2014-May-05 18:33N 54°03' E 014°15'9 8.8
2014-May-05 17:34N 53°54' E 014°15'0 0.1
2014-May-05 16:32N 53°54' E 014°15'0 0.0
2014-May-05 15:32N 53°54' E 014°15'2 1.9
2014-May-05 14:34N 53°56' E 014°17'1211.6
2014-May-05 13:33N 54°07' E 014°13'1212.3
2014-May-05 12:33N 54°19' E 014°09'1212.3
2014-May-05 11:33N 54°31' E 014°05'1212.5
2014-May-05 10:33N 54°43' E 014°01'1212.4
2014-May-05 09:33N 54°56' E 013°57'1515.2
2014-May-05 08:33N 55°11' E 013°54'1414.5
2014-May-05 07:34N 55°25' E 013°49'1 0.3
2014-May-05 05:27N 55°26' E 013°50'0 0.0
2014-May-05 04:27N 55°26' E 013°50'0 0.0
2014-May-05 03:33N 55°26' E 013°50'1 1.0
2014-May-05 02:33N 55°25' E 013°49'1414.1
2014-May-05 01:33N 55°11' E 013°52'1010.2
2014-May-05 00:34N 55°01' E 013°55'1010.3
2014-May-04 23:33N 54°50' E 013°58'1010.3
2014-May-04 22:34N 54°41' E 014°02'11 9.9
2014-May-04 21:30N 54°30' E 014°06'9 9.8
2014-May-04 20:33N 54°21' E 014°09'10 9.7
2014-May-04 19:33N 54°12' E 014°12'10 9.6
2014-May-04 18:33N 54°02' E 014°15'8 8.2
2014-May-04 17:33N 53°54' E 014°15'0 0.1
2014-May-04 16:33N 53°54' E 014°15'0 0.0
2014-May-04 15:33N 53°54' E 014°15'1 1.4
2014-May-04 14:34N 53°55' E 014°17'1211.6
2014-May-04 13:34N 54°06' E 014°13'1312.2
2014-May-04 12:32N 54°19' E 014°09'1212.4
2014-May-04 11:34N 54°31' E 014°05'1312.5
2014-May-04 10:33N 54°43' E 014°01'1313.0
2014-May-04 09:32N 54°56' E 013°56'1515.2
2014-May-04 08:34N 55°10' E 013°52'1514.6
2014-May-04 07:34N 55°25' E 013°49'1 0.2
2014-May-04 04:15N 55°26' E 013°50'0 0.0
2014-May-04 03:33N 55°26' E 013°50'1 1.0
2014-May-04 02:34N 55°25' E 013°49'1413.8
2014-May-04 01:32N 55°11' E 013°52'1010.6
2014-May-04 00:33N 55°00' E 013°56'10 9.6
2014-May-03 23:33N 54°51' E 013°58'9 9.4
2014-May-03 22:33N 54°42' E 014°03'10 9.7
2014-May-03 21:33N 54°32' E 014°06'10 9.8
2014-May-03 20:33N 54°23' E 014°09'10 9.9
2014-May-03 19:30N 54°13' E 014°12'910.0
2014-May-03 18:33N 54°03' E 014°15'9 9.0
2014-May-03 17:33N 53°54' E 014°15'0 0.2
2014-May-03 16:31N 53°54' E 014°15'0 0.0
2014-May-03 15:31N 53°54' E 014°15'5 4.9
2014-May-03 14:33N 53°59' E 014°15'1110.7
2014-May-03 13:33N 54°09' E 014°12'1211.9
2014-May-03 12:33N 54°21' E 014°08'1212.0
2014-May-03 11:33N 54°33' E 014°05'1212.3
2014-May-03 10:33N 54°45' E 014°01'1312.6
2014-May-03 09:33N 54°56' E 013°51'1514.7
2014-May-03 08:33N 55°11' E 013°52'  

Dump ship's entire track history